No particular awareness of the weather is required.    There are no Weather-warnings


Meteo18 Weather Cam more information Meteo18 Weather Cam


Thunder radar more information blitzortung!


Rain radar more information rain snow radar


Visit our other weather sites:

Template documentation
and downloads

And another site



Weather Underground History page Text

Daily Summary for August 31, 2017 Units:  Both    English   Metric
« Previous Day
Next Day »
Daily Weekly Monthly Yearly Custom
  High: Low: Average:
Temperature: 68.4 °F /  20.2 °C 53.1 °F /  11.7 °C 59.4 °F /  15.2 °C
Dew Point: 57.7 °F /  14.3 °C 47.8 °F /  8.8 °C 50.9 °F /  10.5 °C
Humidity: 94 % 49 % 76 %
Wind Speed: 10 mph /  16.1 km/h - 2.7 mph /  4.3 km/h
Wind Gust: 16 mph /  25.7 km/h - -
Wind:- - WSW
Pressure: 30.2 in /  1022.6 hPa 30 in /  1014.4 hPa -
Precipitation: 0 in /  0.0 mm    
Historical Graphs
 
 
Tabular Data for August 31, 2017
Time Temperature Dew Point Pressure Wind Wind Speed Wind Gust Humidity Rainfall Rate (Hourly)
00:02 60.4 °F /  15.8 °C 57.7 °F /  14.3 °C 30 in /  1014.4 hPa WNW 5 mph /  8.0 km/h 9 mph /  14.5 km/h 91 % 0 in /  0.0 mm
00:12 59.9 °F /  15.5 °C 57.6 °F /  14.2 °C 30 in /  1014.8 hPa WNW 5 mph /  8.0 km/h 11 mph /  17.7 km/h 92 % 0 in /  0.0 mm
00:17 59.7 °F /  15.4 °C 57.4 °F /  14.1 °C 30 in /  1014.8 hPa NNW 7 mph /  11.3 km/h 11 mph /  17.7 km/h 92 % 0 in /  0.0 mm
00:22 59.5 °F /  15.3 °C 57.2 °F /  14.0 °C 30 in /  1014.8 hPa NW 6 mph /  9.7 km/h 11 mph /  17.7 km/h 92 % 0 in /  0.0 mm
00:32 59.4 °F /  15.2 °C 56.7 °F /  13.7 °C 30 in /  1014.8 hPa NW 7 mph /  11.3 km/h 10 mph /  16.1 km/h 91 % 0 in /  0.0 mm
00:42 59.4 °F /  15.2 °C 56.7 °F /  13.7 °C 30 in /  1014.8 hPa WNW 3 mph /  4.8 km/h 11 mph /  17.7 km/h 91 % 0 in /  0.0 mm
00:52 59.2 °F /  15.1 °C 56.5 °F /  13.6 °C 30 in /  1015.1 hPa West 3 mph /  4.8 km/h 11 mph /  17.7 km/h 91 % 0 in /  0.0 mm
00:57 59.2 °F /  15.1 °C 56.8 °F /  13.8 °C 30 in /  1014.8 hPa NNW 4 mph /  6.4 km/h 11 mph /  17.7 km/h 92 % 0 in /  0.0 mm
01:02 59.2 °F /  15.1 °C 56.8 °F /  13.8 °C 30 in /  1014.8 hPa NNW 6 mph /  9.7 km/h 11 mph /  17.7 km/h 92 % 0 in /  0.0 mm
01:07 59 °F /  15.0 °C 56.7 °F /  13.7 °C 30 in /  1015.1 hPa WNW 10 mph /  16.1 km/h 10 mph /  16.1 km/h 92 % 0 in /  0.0 mm
01:12 58.5 °F /  14.7 °C 56.1 °F /  13.4 °C 30 in /  1015.1 hPa WNW 5 mph /  8.0 km/h 8 mph /  12.9 km/h 92 % 0 in /  0.0 mm
01:17 58.1 °F /  14.5 °C 55.8 °F /  13.2 °C 30 in /  1015.1 hPa WNW 5 mph /  8.0 km/h 11 mph /  17.7 km/h 92 % 0 in /  0.0 mm
01:22 57.7 °F /  14.3 °C 55.4 °F /  13.0 °C 30 in /  1015.1 hPa NNW 3 mph /  4.8 km/h 11 mph /  17.7 km/h 92 % 0 in /  0.0 mm
01:32 57.4 °F /  14.1 °C 55 °F /  12.8 °C 30 in /  1015.5 hPa North 6 mph /  9.7 km/h 11 mph /  17.7 km/h 92 % 0 in /  0.0 mm
01:42 57 °F /  13.9 °C 54.7 °F /  12.6 °C 30 in /  1015.5 hPa NNW 10 mph /  16.1 km/h 10 mph /  16.1 km/h 92 % 0 in /  0.0 mm
01:47 57 °F /  13.9 °C 54.7 °F /  12.6 °C 30 in /  1015.5 hPa WNW 8 mph /  12.9 km/h 15 mph /  24.1 km/h 92 % 0 in /  0.0 mm
01:52 57 °F /  13.9 °C 54.7 °F /  12.6 °C 30 in /  1015.5 hPa West 6 mph /  9.7 km/h 15 mph /  24.1 km/h 92 % 0 in /  0.0 mm
01:57 57 °F /  13.9 °C 54.7 °F /  12.6 °C 30 in /  1015.5 hPa NNW 10 mph /  16.1 km/h 15 mph /  24.1 km/h 92 % 0 in /  0.0 mm
02:02 57 °F /  13.9 °C 54.7 °F /  12.6 °C 30 in /  1015.5 hPa NW 9 mph /  14.5 km/h 12 mph /  19.3 km/h 92 % 0 in /  0.0 mm
02:12 56.8 °F /  13.8 °C 54.5 °F /  12.5 °C 30 in /  1015.8 hPa NW 3 mph /  4.8 km/h 12 mph /  19.3 km/h 92 % 0 in /  0.0 mm
02:17 56.7 °F /  13.7 °C 54.7 °F /  12.6 °C 30 in /  1015.8 hPa West 8 mph /  12.9 km/h 12 mph /  19.3 km/h 93 % 0 in /  0.0 mm
02:22 56.7 °F /  13.7 °C 54.7 °F /  12.6 °C 30 in /  1015.8 hPa NW 3 mph /  4.8 km/h 11 mph /  17.7 km/h 93 % 0 in /  0.0 mm
02:32 56.7 °F /  13.7 °C 54.7 °F /  12.6 °C 30 in /  1016.1 hPa NNW 7 mph /  11.3 km/h 11 mph /  17.7 km/h 93 % 0 in /  0.0 mm
02:42 56.7 °F /  13.7 °C 54.7 °F /  12.6 °C 30 in /  1016.1 hPa WNW 4 mph /  6.4 km/h 12 mph /  19.3 km/h 93 % 0 in /  0.0 mm
02:47 56.5 °F /  13.6 °C 54.5 °F /  12.5 °C 30 in /  1016.1 hPa NW 4 mph /  6.4 km/h 12 mph /  19.3 km/h 93 % 0 in /  0.0 mm
02:52 56.3 °F /  13.5 °C 54.3 °F /  12.4 °C 30 in /  1016.1 hPa NNW 5 mph /  8.0 km/h 7 mph /  11.3 km/h 93 % 0 in /  0.0 mm
02:57 56.1 °F /  13.4 °C 54.1 °F /  12.3 °C 30 in /  1016.1 hPa NW 3 mph /  4.8 km/h 7 mph /  11.3 km/h 93 % 0 in /  0.0 mm
03:02 56.1 °F /  13.4 °C 54.5 °F /  12.5 °C 30 in /  1016.1 hPa West 3 mph /  4.8 km/h 9 mph /  14.5 km/h 94 % 0 in /  0.0 mm
03:12 55.9 °F /  13.3 °C 54 °F /  12.2 °C 30 in /  1016.1 hPa WNW 5 mph /  8.0 km/h 9 mph /  14.5 km/h 93 % 0 in /  0.0 mm
03:17 55.8 °F /  13.2 °C 53.8 °F /  12.1 °C 30 in /  1016.1 hPa NW 2 mph /  3.2 km/h 14 mph /  22.5 km/h 93 % 0 in /  0.0 mm
03:22 55.6 °F /  13.1 °C 53.6 °F /  12.0 °C 30 in /  1016.1 hPa WNW 6 mph /  9.7 km/h 16 mph /  25.7 km/h 93 % 0 in /  0.0 mm
03:27 55.6 °F /  13.1 °C 53.6 °F /  12.0 °C 30 in /  1016.5 hPa WNW 4 mph /  6.4 km/h 16 mph /  25.7 km/h 93 % 0 in /  0.0 mm
03:32 55.4 °F /  13.0 °C 53.4 °F /  11.9 °C 30 in /  1016.5 hPa West 2 mph /  3.2 km/h 16 mph /  25.7 km/h 93 % 0 in /  0.0 mm
03:42 55.4 °F /  13.0 °C 53.4 °F /  11.9 °C 30 in /  1016.8 hPa NW 2 mph /  3.2 km/h 11 mph /  17.7 km/h 93 % 0 in /  0.0 mm
03:52 55 °F /  12.8 °C 52.7 °F /  11.5 °C 30 in /  1016.8 hPa NW 5 mph /  8.0 km/h 12 mph /  19.3 km/h 92 % 0 in /  0.0 mm
03:57 54.7 °F /  12.6 °C 52.3 °F /  11.3 °C 30 in /  1016.8 hPa NNW 3 mph /  4.8 km/h 11 mph /  17.7 km/h 92 % 0 in /  0.0 mm
04:02 54.5 °F /  12.5 °C 52 °F /  11.1 °C 30 in /  1017.2 hPa North 2 mph /  3.2 km/h 12 mph /  19.3 km/h 91 % 0 in /  0.0 mm
04:12 54.7 °F /  12.6 °C 51.8 °F /  11.0 °C 30 in /  1017.2 hPa NNE 7 mph /  11.3 km/h 12 mph /  19.3 km/h 90 % 0 in /  0.0 mm
04:17 54.5 °F /  12.5 °C 52 °F /  11.1 °C 30 in /  1017.2 hPa WSW 3 mph /  4.8 km/h 12 mph /  19.3 km/h 91 % 0 in /  0.0 mm
04:22 54.5 °F /  12.5 °C 52.2 °F /  11.2 °C 30.1 in /  1017.5 hPa NNW 3 mph /  4.8 km/h 12 mph /  19.3 km/h 92 % 0 in /  0.0 mm
04:32 54.3 °F /  12.4 °C 52 °F /  11.1 °C 30.1 in /  1017.5 hPa WNW 3 mph /  4.8 km/h 11 mph /  17.7 km/h 92 % 0 in /  0.0 mm
04:37 54.3 °F /  12.4 °C 52 °F /  11.1 °C 30.1 in /  1017.5 hPa NNW 3 mph /  4.8 km/h 11 mph /  17.7 km/h 92 % 0 in /  0.0 mm
04:42 54.3 °F /  12.4 °C 51.8 °F /  11.0 °C 30.1 in /  1017.5 hPa NW 3 mph /  4.8 km/h 11 mph /  17.7 km/h 91 % 0 in /  0.0 mm
04:47 54.3 °F /  12.4 °C 51.8 °F /  11.0 °C 30.1 in /  1017.5 hPa NW 5 mph /  8.0 km/h 10 mph /  16.1 km/h 91 % 0 in /  0.0 mm
04:52 54.3 °F /  12.4 °C 51.8 °F /  11.0 °C 30.1 in /  1017.5 hPa NW 9 mph /  14.5 km/h 11 mph /  17.7 km/h 91 % 0 in /  0.0 mm
04:57 54.1 °F /  12.3 °C 51.6 °F /  10.9 °C 30.1 in /  1017.5 hPa NNW 3 mph /  4.8 km/h 11 mph /  17.7 km/h 91 % 0 in /  0.0 mm
05:02 54.3 °F /  12.4 °C 52 °F /  11.1 °C 30.1 in /  1017.8 hPa NNW 2 mph /  3.2 km/h 11 mph /  17.7 km/h 92 % 0 in /  0.0 mm
05:12 54.1 °F /  12.3 °C 51.8 °F /  11.0 °C 30.1 in /  1017.8 hPa NW 3 mph /  4.8 km/h 10 mph /  16.1 km/h 92 % 0 in /  0.0 mm
05:22 54.3 °F /  12.4 °C 52 °F /  11.1 °C 30.1 in /  1017.8 hPa NW 3 mph /  4.8 km/h 7 mph /  11.3 km/h 92 % 0 in /  0.0 mm
05:32 54.3 °F /  12.4 °C 52 °F /  11.1 °C 30.1 in /  1018.2 hPa North 2 mph /  3.2 km/h 7 mph /  11.3 km/h 92 % 0 in /  0.0 mm
05:42 54.3 °F /  12.4 °C 52 °F /  11.1 °C 30.1 in /  1018.2 hPa NW 2 mph /  3.2 km/h 6 mph /  9.7 km/h 92 % 0 in /  0.0 mm
05:52 54.1 °F /  12.3 °C 51.8 °F /  11.0 °C 30.1 in /  1018.5 hPa NW 1 mph /  1.6 km/h 7 mph /  11.3 km/h 92 % 0 in /  0.0 mm
06:02 54 °F /  12.2 °C 51.4 °F /  10.8 °C 30.1 in /  1018.5 hPa NW 4 mph /  6.4 km/h 11 mph /  17.7 km/h 91 % 0 in /  0.0 mm
06:12 53.8 °F /  12.1 °C 51.3 °F /  10.7 °C 30.1 in /  1018.8 hPa NNW 2 mph /  3.2 km/h 11 mph /  17.7 km/h 91 % 0 in /  0.0 mm
06:17 53.6 °F /  12.0 °C 51.1 °F /  10.6 °C 30.1 in /  1018.8 hPa NW 2 mph /  3.2 km/h 11 mph /  17.7 km/h 91 % 0 in /  0.0 mm
06:22 53.6 °F /  12.0 °C 51.1 °F /  10.6 °C 30.1 in /  1018.8 hPa NW 2 mph /  3.2 km/h 11 mph /  17.7 km/h 91 % 0 in /  0.0 mm
06:32 53.4 °F /  11.9 °C 50.9 °F /  10.5 °C 30.1 in /  1018.8 hPa NNW 3 mph /  4.8 km/h 7 mph /  11.3 km/h 91 % 0 in /  0.0 mm
06:37 53.4 °F /  11.9 °C 50.5 °F /  10.3 °C 30.1 in /  1019.2 hPa WNW 3 mph /  4.8 km/h 7 mph /  11.3 km/h 90 % 0 in /  0.0 mm
06:42 53.4 °F /  11.9 °C 50.5 °F /  10.3 °C 30.1 in /  1019.2 hPa NNW 3 mph /  4.8 km/h 9 mph /  14.5 km/h 90 % 0 in /  0.0 mm
06:52 53.2 °F /  11.8 °C 50.4 °F /  10.2 °C 30.1 in /  1019.2 hPa WNW 3 mph /  4.8 km/h 9 mph /  14.5 km/h 90 % 0 in /  0.0 mm
06:57 53.2 °F /  11.8 °C 50.4 °F /  10.2 °C 30.1 in /  1019.5 hPa NW 7 mph /  11.3 km/h 9 mph /  14.5 km/h 90 % 0 in /  0.0 mm
07:02 53.2 °F /  11.8 °C 50.4 °F /  10.2 °C 30.1 in /  1019.5 hPa NNE 2 mph /  3.2 km/h 9 mph /  14.5 km/h 90 % 0 in /  0.0 mm
07:12 53.1 °F /  11.7 °C 50.5 °F /  10.3 °C 30.1 in /  1019.9 hPa WNW 3 mph /  4.8 km/h 8 mph /  12.9 km/h 91 % 0 in /  0.0 mm
07:17 53.1 °F /  11.7 °C 50.5 °F /  10.3 °C 30.1 in /  1019.9 hPa NW 4 mph /  6.4 km/h 8 mph /  12.9 km/h 91 % 0 in /  0.0 mm
07:22 53.1 °F /  11.7 °C 50.2 °F /  10.1 °C 30.1 in /  1019.9 hPa NNW 2 mph /  3.2 km/h 6 mph /  9.7 km/h 90 % 0 in /  0.0 mm
07:32 53.1 °F /  11.7 °C 50.2 °F /  10.1 °C 30.1 in /  1019.9 hPa WNW 8 mph /  12.9 km/h 8 mph /  12.9 km/h 90 % 0 in /  0.0 mm
07:37 53.1 °F /  11.7 °C 50.2 °F /  10.1 °C 30.1 in /  1019.9 hPa NW 4 mph /  6.4 km/h 8 mph /  12.9 km/h 90 % 0 in /  0.0 mm
07:42 53.1 °F /  11.7 °C 50.2 °F /  10.1 °C 30.1 in /  1020.2 hPa West 5 mph /  8.0 km/h 8 mph /  12.9 km/h 90 % 0 in /  0.0 mm
07:52 53.1 °F /  11.7 °C 49.8 °F /  9.9 °C 30.1 in /  1020.5 hPa WNW 3 mph /  4.8 km/h 6 mph /  9.7 km/h 89 % 0 in /  0.0 mm
07:57 53.1 °F /  11.7 °C 49.8 °F /  9.9 °C 30.1 in /  1020.2 hPa WNW 3 mph /  4.8 km/h 6 mph /  9.7 km/h 89 % 0 in /  0.0 mm
08:02 53.1 °F /  11.7 °C 49.8 °F /  9.9 °C 30.1 in /  1020.2 hPa WNW 2 mph /  3.2 km/h 8 mph /  12.9 km/h 89 % 0 in /  0.0 mm
08:12 53.1 °F /  11.7 °C 49.8 °F /  9.9 °C 30.1 in /  1020.5 hPa NW 5 mph /  8.0 km/h 6 mph /  9.7 km/h 89 % 0 in /  0.0 mm
08:17 53.1 °F /  11.7 °C 49.8 °F /  9.9 °C 30.1 in /  1020.5 hPa NW 2 mph /  3.2 km/h 6 mph /  9.7 km/h 89 % 0 in /  0.0 mm
08:22 53.1 °F /  11.7 °C 49.8 °F /  9.9 °C 30.1 in /  1020.5 hPa NW 1 mph /  1.6 km/h 7 mph /  11.3 km/h 89 % 0 in /  0.0 mm
08:32 53.1 °F /  11.7 °C 49.8 °F /  9.9 °C 30.1 in /  1020.5 hPa WSW 1 mph /  1.6 km/h 9 mph /  14.5 km/h 89 % 0 in /  0.0 mm
08:37 53.1 °F /  11.7 °C 49.8 °F /  9.9 °C 30.2 in /  1020.9 hPa NW 2 mph /  3.2 km/h 9 mph /  14.5 km/h 89 % 0 in /  0.0 mm
08:42 53.2 °F /  11.8 °C 50 °F /  10.0 °C 30.2 in /  1020.9 hPa WNW 1 mph /  1.6 km/h 7 mph /  11.3 km/h 89 % 0 in /  0.0 mm
08:52 53.6 °F /  12.0 °C 50.4 °F /  10.2 °C 30.2 in /  1020.9 hPa WNW 3 mph /  4.8 km/h 5 mph /  8.0 km/h 89 % 0 in /  0.0 mm
08:57 53.6 °F /  12.0 °C 50.4 °F /  10.2 °C 30.2 in /  1020.9 hPa West 2 mph /  3.2 km/h 5 mph /  8.0 km/h 89 % 0 in /  0.0 mm
09:02 53.8 °F /  12.1 °C 50.5 °F /  10.3 °C 30.2 in /  1020.9 hPa WNW 4 mph /  6.4 km/h 8 mph /  12.9 km/h 89 % 0 in /  0.0 mm
09:12 54.3 °F /  12.4 °C 50.5 °F /  10.3 °C 30.2 in /  1021.2 hPa NW 1 mph /  1.6 km/h 8 mph /  12.9 km/h 87 % 0 in /  0.0 mm
09:22 54.5 °F /  12.5 °C 50.4 °F /  10.2 °C 30.2 in /  1021.2 hPa WNW 6 mph /  9.7 km/h 9 mph /  14.5 km/h 86 % 0 in /  0.0 mm
09:32 54.7 °F /  12.6 °C 50.9 °F /  10.5 °C 30.2 in /  1021.6 hPa WNW 1 mph /  1.6 km/h 9 mph /  14.5 km/h 87 % 0 in /  0.0 mm
09:37 54.9 °F /  12.7 °C 50.7 °F /  10.4 °C 30.2 in /  1021.6 hPa West 4 mph /  6.4 km/h 9 mph /  14.5 km/h 86 % 0 in /  0.0 mm
09:42 54.9 °F /  12.7 °C 50.4 °F /  10.2 °C 30.2 in /  1021.6 hPa NNW 3 mph /  4.8 km/h 9 mph /  14.5 km/h 85 % 0 in /  0.0 mm
09:52 55.9 °F /  13.3 °C 51.4 °F /  10.8 °C 30.2 in /  1021.6 hPa NNW 8 mph /  12.9 km/h 8 mph /  12.9 km/h 85 % 0 in /  0.0 mm
10:02 55.9 °F /  13.3 °C 50.5 °F /  10.3 °C 30.2 in /  1021.6 hPa NW 2 mph /  3.2 km/h 8 mph /  12.9 km/h 82 % 0 in /  0.0 mm
10:07 55.8 °F /  13.2 °C 50.7 °F /  10.4 °C 30.2 in /  1021.9 hPa NW 1 mph /  1.6 km/h 8 mph /  12.9 km/h 83 % 0 in /  0.0 mm
10:12 55.8 °F /  13.2 °C 50.7 °F /  10.4 °C 30.2 in /  1021.9 hPa WNW 3 mph /  4.8 km/h 9 mph /  14.5 km/h 83 % 0 in /  0.0 mm
10:17 55.8 °F /  13.2 °C 50.7 °F /  10.4 °C 30.2 in /  1021.9 hPa WNW 5 mph /  8.0 km/h 9 mph /  14.5 km/h 83 % 0 in /  0.0 mm
10:22 56.1 °F /  13.4 °C 51.1 °F /  10.6 °C 30.2 in /  1021.9 hPa NNW 2 mph /  3.2 km/h 9 mph /  14.5 km/h 83 % 0 in /  0.0 mm
10:32 57.2 °F /  14.0 °C 51.1 °F /  10.6 °C 30.2 in /  1021.9 hPa NW 1 mph /  1.6 km/h 9 mph /  14.5 km/h 80 % 0 in /  0.0 mm
10:37 57.2 °F /  14.0 °C 51.1 °F /  10.6 °C 30.2 in /  1022.2 hPa WNW 2 mph /  3.2 km/h 9 mph /  14.5 km/h 80 % 0 in /  0.0 mm
10:42 56.7 °F /  13.7 °C 50.9 °F /  10.5 °C 30.2 in /  1022.2 hPa NW 1 mph /  1.6 km/h 9 mph /  14.5 km/h 81 % 0 in /  0.0 mm
10:52 57.2 °F /  14.0 °C 50.7 °F /  10.4 °C 30.2 in /  1022.2 hPa North 3 mph /  4.8 km/h 9 mph /  14.5 km/h 79 % 0 in /  0.0 mm
10:57 57.4 °F /  14.1 °C 51.3 °F /  10.7 °C 30.2 in /  1022.2 hPa NNW 3 mph /  4.8 km/h 9 mph /  14.5 km/h 80 % 0 in /  0.0 mm
11:02 57.9 °F /  14.4 °C 51.1 °F /  10.6 °C 30.2 in /  1022.6 hPa NE 4 mph /  6.4 km/h 7 mph /  11.3 km/h 78 % 0 in /  0.0 mm
11:12 58.5 °F /  14.7 °C 50.5 °F /  10.3 °C 30.2 in /  1022.6 hPa WNW 3 mph /  4.8 km/h 8 mph /  12.9 km/h 75 % 0 in /  0.0 mm
11:22 58.5 °F /  14.7 °C 50.5 °F /  10.3 °C 30.2 in /  1022.6 hPa NW 2 mph /  3.2 km/h 8 mph /  12.9 km/h 75 % 0 in /  0.0 mm
11:32 59.4 °F /  15.2 °C 51.1 °F /  10.6 °C 30.2 in /  1022.6 hPa NNW 4 mph /  6.4 km/h 7 mph /  11.3 km/h 74 % 0 in /  0.0 mm
11:42 59.5 °F /  15.3 °C 50.5 °F /  10.3 °C 30.2 in /  1022.6 hPa WNW 4 mph /  6.4 km/h 9 mph /  14.5 km/h 72 % 0 in /  0.0 mm
11:52 60.4 °F /  15.8 °C 51.4 °F /  10.8 °C 30.2 in /  1022.2 hPa NW 5 mph /  8.0 km/h 8 mph /  12.9 km/h 72 % 0 in /  0.0 mm
12:02 60.8 °F /  16.0 °C 50.5 °F /  10.3 °C 30.2 in /  1022.6 hPa NNW 5 mph /  8.0 km/h 10 mph /  16.1 km/h 69 % 0 in /  0.0 mm
12:12 61.3 °F /  16.3 °C 50.7 °F /  10.4 °C 30.2 in /  1022.6 hPa NNE 6 mph /  9.7 km/h 10 mph /  16.1 km/h 68 % 0 in /  0.0 mm
12:17 61.5 °F /  16.4 °C 50 °F /  10.0 °C 30.2 in /  1022.6 hPa NE 6 mph /  9.7 km/h 11 mph /  17.7 km/h 66 % 0 in /  0.0 mm
12:22 61.9 °F /  16.6 °C 50 °F /  10.0 °C 30.2 in /  1022.6 hPa NNW 5 mph /  8.0 km/h 11 mph /  17.7 km/h 65 % 0 in /  0.0 mm
12:32 61.5 °F /  16.4 °C 49.6 °F /  9.8 °C 30.2 in /  1022.6 hPa WNW 3 mph /  4.8 km/h 8 mph /  12.9 km/h 65 % 0 in /  0.0 mm
12:42 61.9 °F /  16.6 °C 50 °F /  10.0 °C 30.2 in /  1022.6 hPa NE 4 mph /  6.4 km/h 8 mph /  12.9 km/h 65 % 0 in /  0.0 mm
12:47 62.2 °F /  16.8 °C 50 °F /  10.0 °C 30.2 in /  1022.6 hPa NE 4 mph /  6.4 km/h 8 mph /  12.9 km/h 64 % 0 in /  0.0 mm
12:52 62.8 °F /  17.1 °C 49.6 °F /  9.8 °C 30.2 in /  1022.6 hPa NW 2 mph /  3.2 km/h 9 mph /  14.5 km/h 62 % 0 in /  0.0 mm
12:57 63.1 °F /  17.3 °C 49.8 °F /  9.9 °C 30.2 in /  1022.6 hPa North 4 mph /  6.4 km/h 9 mph /  14.5 km/h 62 % 0 in /  0.0 mm
13:02 63.3 °F /  17.4 °C 49.6 °F /  9.8 °C 30.2 in /  1022.2 hPa West 2 mph /  3.2 km/h 9 mph /  14.5 km/h 61 % 0 in /  0.0 mm
13:12 63.1 °F /  17.3 °C 48.6 °F /  9.2 °C 30.2 in /  1022.6 hPa WNW 5 mph /  8.0 km/h 10 mph /  16.1 km/h 59 % 0 in /  0.0 mm
13:17 63.1 °F /  17.3 °C 49.1 °F /  9.5 °C 30.2 in /  1022.6 hPa South 1 mph /  1.6 km/h 7 mph /  11.3 km/h 60 % 0 in /  0.0 mm
13:22 63.3 °F /  17.4 °C 48.7 °F /  9.3 °C 30.2 in /  1022.6 hPa WNW 1 mph /  1.6 km/h 7 mph /  11.3 km/h 59 % 0 in /  0.0 mm
13:32 64.6 °F /  18.1 °C 48.9 °F /  9.4 °C 30.2 in /  1022.6 hPa NE 3 mph /  4.8 km/h 7 mph /  11.3 km/h 57 % 0 in /  0.0 mm
13:42 64.8 °F /  18.2 °C 49.1 °F /  9.5 °C 30.2 in /  1022.2 hPa NNE 1 mph /  1.6 km/h 8 mph /  12.9 km/h 57 % 0 in /  0.0 mm
13:47 65.1 °F /  18.4 °C 49.5 °F /  9.7 °C 30.2 in /  1022.2 hPa NNE 6 mph /  9.7 km/h 7 mph /  11.3 km/h 57 % 0 in /  0.0 mm
13:57 65.3 °F /  18.5 °C 49.3 °F /  9.6 °C 30.2 in /  1022.2 hPa Calm   8 mph /  12.9 km/h 56 % 0 in /  0.0 mm
14:02 65.7 °F /  18.7 °C 49.5 °F /  9.7 °C 30.2 in /  1022.2 hPa WNW 2 mph /  3.2 km/h 8 mph /  12.9 km/h 56 % 0 in /  0.0 mm
14:07 65.5 °F /  18.6 °C 48.9 °F /  9.4 °C 30.2 in /  1022.2 hPa West 1 mph /  1.6 km/h 9 mph /  14.5 km/h 55 % 0 in /  0.0 mm
14:12 65.5 °F /  18.6 °C 49.3 °F /  9.6 °C 30.2 in /  1022.2 hPa NNE 4 mph /  6.4 km/h 9 mph /  14.5 km/h 56 % 0 in /  0.0 mm
14:17 65.1 °F /  18.4 °C 49.1 °F /  9.5 °C 30.2 in /  1022.2 hPa North 4 mph /  6.4 km/h 11 mph /  17.7 km/h 56 % 0 in /  0.0 mm
14:22 65.3 °F /  18.5 °C 48.7 °F /  9.3 °C 30.2 in /  1022.2 hPa NNW 3 mph /  4.8 km/h 11 mph /  17.7 km/h 55 % 0 in /  0.0 mm
14:32 65.8 °F /  18.8 °C 48.2 °F /  9.0 °C 30.2 in /  1022.2 hPa Calm   8 mph /  12.9 km/h 53 % 0 in /  0.0 mm
14:42 65.5 °F /  18.6 °C 47.8 °F /  8.8 °C 30.2 in /  1022.2 hPa NW 2 mph /  3.2 km/h 6 mph /  9.7 km/h 53 % 0 in /  0.0 mm
14:47 65.7 °F /  18.7 °C 48.6 °F /  9.2 °C 30.2 in /  1022.2 hPa NNE 5 mph /  8.0 km/h 6 mph /  9.7 km/h 54 % 0 in /  0.0 mm
14:52 66.4 °F /  19.1 °C 48.7 °F /  9.3 °C 30.2 in /  1022.2 hPa Calm   6 mph /  9.7 km/h 53 % 0 in /  0.0 mm
15:02 67.5 °F /  19.7 °C 49.3 °F /  9.6 °C 30.2 in /  1022.2 hPa North 7 mph /  11.3 km/h 8 mph /  12.9 km/h 52 % 0 in /  0.0 mm
15:12 66 °F /  18.9 °C 47.8 °F /  8.8 °C 30.2 in /  1022.2 hPa ENE 4 mph /  6.4 km/h 8 mph /  12.9 km/h 52 % 0 in /  0.0 mm
15:17 66 °F /  18.9 °C 48.4 °F /  9.1 °C 30.2 in /  1022.2 hPa NNW 3 mph /  4.8 km/h 14 mph /  22.5 km/h 53 % 0 in /  0.0 mm
15:22 66 °F /  18.9 °C 48.4 °F /  9.1 °C 30.2 in /  1021.9 hPa NNE 6 mph /  9.7 km/h 14 mph /  22.5 km/h 53 % 0 in /  0.0 mm
15:32 65.8 °F /  18.8 °C 48.7 °F /  9.3 °C 30.2 in /  1021.9 hPa NW 2 mph /  3.2 km/h 7 mph /  11.3 km/h 54 % 0 in /  0.0 mm
15:42 66 °F /  18.9 °C 48.4 °F /  9.1 °C 30.2 in /  1021.9 hPa NNW 2 mph /  3.2 km/h 7 mph /  11.3 km/h 53 % 0 in /  0.0 mm
15:52 66 °F /  18.9 °C 48.4 °F /  9.1 °C 30.2 in /  1021.9 hPa North 3 mph /  4.8 km/h 6 mph /  9.7 km/h 53 % 0 in /  0.0 mm
16:02 66.4 °F /  19.1 °C 48.2 °F /  9.0 °C 30.2 in /  1021.9 hPa WNW 2 mph /  3.2 km/h 7 mph /  11.3 km/h 52 % 0 in /  0.0 mm
16:12 66.4 °F /  19.1 °C 48.2 °F /  9.0 °C 30.2 in /  1021.9 hPa NNE 3 mph /  4.8 km/h 7 mph /  11.3 km/h 52 % 0 in /  0.0 mm
16:17 66.4 °F /  19.1 °C 49.3 °F /  9.6 °C 30.2 in /  1021.9 hPa WNW 5 mph /  8.0 km/h 7 mph /  11.3 km/h 54 % 0 in /  0.0 mm
16:22 66.2 °F /  19.0 °C 49.1 °F /  9.5 °C 30.2 in /  1021.9 hPa NNE 2 mph /  3.2 km/h 6 mph /  9.7 km/h 54 % 0 in /  0.0 mm
16:27 66.4 °F /  19.1 °C 48.7 °F /  9.3 °C 30.2 in /  1021.9 hPa NW 2 mph /  3.2 km/h 6 mph /  9.7 km/h 53 % 0 in /  0.0 mm
16:32 66.4 °F /  19.1 °C 48.7 °F /  9.3 °C 30.2 in /  1021.6 hPa WNW 3 mph /  4.8 km/h 6 mph /  9.7 km/h 53 % 0 in /  0.0 mm
16:42 66 °F /  18.9 °C 48.9 °F /  9.4 °C 30.2 in /  1021.6 hPa WNW 1 mph /  1.6 km/h 7 mph /  11.3 km/h 54 % 0 in /  0.0 mm
16:47 66.7 °F /  19.3 °C 49.1 °F /  9.5 °C 30.2 in /  1021.6 hPa North 1 mph /  1.6 km/h 7 mph /  11.3 km/h 53 % 0 in /  0.0 mm
16:52 66.9 °F /  19.4 °C 49.3 °F /  9.6 °C 30.2 in /  1021.6 hPa North 5 mph /  8.0 km/h 6 mph /  9.7 km/h 53 % 0 in /  0.0 mm
16:57 67.5 °F /  19.7 °C 49.8 °F /  9.9 °C 30.2 in /  1021.6 hPa NNE 1 mph /  1.6 km/h 7 mph /  11.3 km/h 53 % 0 in /  0.0 mm
17:02 68 °F /  20.0 °C 49.3 °F /  9.6 °C 30.2 in /  1021.6 hPa WNW 2 mph /  3.2 km/h 7 mph /  11.3 km/h 51 % 0 in /  0.0 mm
17:12 68.2 °F /  20.1 °C 48.9 °F /  9.4 °C 30.2 in /  1021.6 hPa NW 3 mph /  4.8 km/h 6 mph /  9.7 km/h 50 % 0 in /  0.0 mm
17:17 68.4 °F /  20.2 °C 49.5 °F /  9.7 °C 30.2 in /  1021.6 hPa Calm   6 mph /  9.7 km/h 51 % 0 in /  0.0 mm
17:22 68.4 °F /  20.2 °C 48.4 °F /  9.1 °C 30.2 in /  1021.6 hPa Calm   5 mph /  8.0 km/h 49 % 0 in /  0.0 mm
17:32 68.2 °F /  20.1 °C 48.9 °F /  9.4 °C 30.2 in /  1021.6 hPa SW 2 mph /  3.2 km/h 5 mph /  8.0 km/h 50 % 0 in /  0.0 mm
17:42 68.2 °F /  20.1 °C 48.9 °F /  9.4 °C 30.2 in /  1021.6 hPa NE 2 mph /  3.2 km/h 4 mph /  6.4 km/h 50 % 0 in /  0.0 mm
17:52 67.6 °F /  19.8 °C 48.4 °F /  9.1 °C 30.2 in /  1021.6 hPa Calm   7 mph /  11.3 km/h 50 % 0 in /  0.0 mm
17:57 67.8 °F /  19.9 °C 49.1 °F /  9.5 °C 30.2 in /  1021.6 hPa NNW 3 mph /  4.8 km/h 8 mph /  12.9 km/h 51 % 0 in /  0.0 mm
18:02 68.4 °F /  20.2 °C 48.4 °F /  9.1 °C 30.2 in /  1021.6 hPa Calm   8 mph /  12.9 km/h 49 % 0 in /  0.0 mm
18:12 68.2 °F /  20.1 °C 48.4 °F /  9.1 °C 30.2 in /  1021.6 hPa NNE 5 mph /  8.0 km/h 5 mph /  8.0 km/h 49 % 0 in /  0.0 mm
18:17 67.6 °F /  19.8 °C 48.4 °F /  9.1 °C 30.2 in /  1021.6 hPa North 1 mph /  1.6 km/h 7 mph /  11.3 km/h 50 % 0 in /  0.0 mm
18:22 67.5 °F /  19.7 °C 48.2 °F /  9.0 °C 30.2 in /  1021.6 hPa NE 3 mph /  4.8 km/h 7 mph /  11.3 km/h 50 % 0 in /  0.0 mm
18:32 67.1 °F /  19.5 °C 48.4 °F /  9.1 °C 30.2 in /  1021.6 hPa North 1 mph /  1.6 km/h 7 mph /  11.3 km/h 51 % 0 in /  0.0 mm
18:42 67.1 °F /  19.5 °C 48.4 °F /  9.1 °C 30.2 in /  1021.6 hPa ENE 1 mph /  1.6 km/h 5 mph /  8.0 km/h 51 % 0 in /  0.0 mm
18:52 66.7 °F /  19.3 °C 49.1 °F /  9.5 °C 30.2 in /  1021.6 hPa ENE 3 mph /  4.8 km/h 3 mph /  4.8 km/h 53 % 0 in /  0.0 mm
19:02 66.9 °F /  19.4 °C 49.3 °F /  9.6 °C 30.2 in /  1021.6 hPa Calm   5 mph /  8.0 km/h 53 % 0 in /  0.0 mm
19:12 66.6 °F /  19.2 °C 49.8 °F /  9.9 °C 30.2 in /  1021.6 hPa Calm   5 mph /  8.0 km/h 55 % 0 in /  0.0 mm
19:17 66.6 °F /  19.2 °C 49.5 °F /  9.7 °C 30.2 in /  1021.6 hPa Calm   4 mph /  6.4 km/h 54 % 0 in /  0.0 mm
19:22 66.4 °F /  19.1 °C 49.3 °F /  9.6 °C 30.2 in /  1021.6 hPa ESE 2 mph /  3.2 km/h 4 mph /  6.4 km/h 54 % 0 in /  0.0 mm
19:32 65.8 °F /  18.8 °C 49.3 °F /  9.6 °C 30.2 in /  1021.6 hPa Calm   3 mph /  4.8 km/h 55 % 0 in /  0.0 mm
19:37 65.8 °F /  18.8 °C 49.3 °F /  9.6 °C 30.2 in /  1021.6 hPa Calm   4 mph /  6.4 km/h 55 % 0 in /  0.0 mm
19:42 66 °F /  18.9 °C 49.5 °F /  9.7 °C 30.2 in /  1021.6 hPa East 1 mph /  1.6 km/h 4 mph /  6.4 km/h 55 % 0 in /  0.0 mm
19:52 65.7 °F /  18.7 °C 49.5 °F /  9.7 °C 30.2 in /  1021.6 hPa East 1 mph /  1.6 km/h 4 mph /  6.4 km/h 56 % 0 in /  0.0 mm
19:57 65.1 °F /  18.4 °C 49.5 °F /  9.7 °C 30.2 in /  1021.6 hPa Calm   4 mph /  6.4 km/h 57 % 0 in /  0.0 mm
20:02 64.8 °F /  18.2 °C 49.6 °F /  9.8 °C 30.2 in /  1021.6 hPa Calm   4 mph /  6.4 km/h 58 % 0 in /  0.0 mm
20:12 63.9 °F /  17.7 °C 49.6 °F /  9.8 °C 30.2 in /  1021.6 hPa Calm   2 mph /  3.2 km/h 60 % 0 in /  0.0 mm
20:17 63.7 °F /  17.6 °C 50 °F /  10.0 °C 30.2 in /  1021.6 hPa Calm   1 mph /  1.6 km/h 61 % 0 in /  0.0 mm
20:22 63.1 °F /  17.3 °C 49.5 °F /  9.7 °C 30.2 in /  1021.6 hPa Calm   1 mph /  1.6 km/h 61 % 0 in /  0.0 mm
20:32 62.1 °F /  16.7 °C 49.8 °F /  9.9 °C 30.2 in /  1021.9 hPa Calm   1 mph /  1.6 km/h 64 % 0 in /  0.0 mm
20:37 61.5 °F /  16.4 °C 49.6 °F /  9.8 °C 30.2 in /  1021.9 hPa Calm   1 mph /  1.6 km/h 65 % 0 in /  0.0 mm
20:42 61.2 °F /  16.2 °C 49.6 °F /  9.8 °C 30.2 in /  1021.9 hPa Calm   1 mph /  1.6 km/h 66 % 0 in /  0.0 mm
20:52 60.4 °F /  15.8 °C 49.5 °F /  9.7 °C 30.2 in /  1021.9 hPa Calm   1 mph /  1.6 km/h 67 % 0 in /  0.0 mm
21:02 59.2 °F /  15.1 °C 49.8 °F /  9.9 °C 30.2 in /  1021.9 hPa Calm   1 mph /  1.6 km/h 71 % 0 in /  0.0 mm
21:12 58.6 °F /  14.8 °C 49.6 °F /  9.8 °C 30.2 in /  1022.2 hPa Calm   1 mph /  1.6 km/h 72 % 0 in /  0.0 mm
21:17 58.8 °F /  14.9 °C 49.5 °F /  9.7 °C 30.2 in /  1022.2 hPa Calm     71 % 0 in /  0.0 mm
21:22 59 °F /  15.0 °C 50 °F /  10.0 °C 30.2 in /  1022.2 hPa Calm     72 % 0 in /  0.0 mm
21:32 58.5 °F /  14.7 °C 49.5 °F /  9.7 °C 30.2 in /  1022.2 hPa Calm     72 % 0 in /  0.0 mm
21:42 57.4 °F /  14.1 °C 49.8 °F /  9.9 °C 30.2 in /  1022.2 hPa WNW 1 mph /  1.6 km/h   76 % 0 in /  0.0 mm
21:52 56.7 °F /  13.7 °C 49.5 °F /  9.7 °C 30.2 in /  1022.2 hPa North 1 mph /  1.6 km/h 2 mph /  3.2 km/h 77 % 0 in /  0.0 mm
21:57 57.2 °F /  14.0 °C 50.4 °F /  10.2 °C 30.2 in /  1022.2 hPa Calm   2 mph /  3.2 km/h 78 % 0 in /  0.0 mm
22:02 57.4 °F /  14.1 °C 50.5 °F /  10.3 °C 30.2 in /  1022.2 hPa Calm   2 mph /  3.2 km/h 78 % 0 in /  0.0 mm
22:07 57.4 °F /  14.1 °C 50.2 °F /  10.1 °C 30.2 in /  1022.2 hPa Calm   2 mph /  3.2 km/h 77 % 0 in /  0.0 mm
22:12 57 °F /  13.9 °C 50.2 °F /  10.1 °C 30.2 in /  1022.2 hPa Calm   2 mph /  3.2 km/h 78 % 0 in /  0.0 mm
22:17 56.7 °F /  13.7 °C 49.8 °F /  9.9 °C 30.2 in /  1022.2 hPa Calm     78 % 0 in /  0.0 mm
22:22 56.5 °F /  13.6 °C 50 °F /  10.0 °C 30.2 in /  1022.2 hPa Calm   1 mph /  1.6 km/h 79 % 0 in /  0.0 mm
22:27 56.5 °F /  13.6 °C 50 °F /  10.0 °C 30.2 in /  1022.2 hPa Calm   1 mph /  1.6 km/h 79 % 0 in /  0.0 mm
22:32 56.5 °F /  13.6 °C 50.4 °F /  10.2 °C 30.2 in /  1022.2 hPa Calm   1 mph /  1.6 km/h 80 % 0 in /  0.0 mm
22:37 56.5 °F /  13.6 °C 50.4 °F /  10.2 °C 30.2 in /  1022.2 hPa Calm   1 mph /  1.6 km/h 80 % 0 in /  0.0 mm
22:47 56.3 °F /  13.5 °C 50.9 °F /  10.5 °C 30.2 in /  1022.6 hPa Calm   1 mph /  1.6 km/h 82 % 0 in /  0.0 mm
22:52 56.3 °F /  13.5 °C 50.9 °F /  10.5 °C 30.2 in /  1022.6 hPa Calm   1 mph /  1.6 km/h 82 % 0 in /  0.0 mm
22:57 56.1 °F /  13.4 °C 50.7 °F /  10.4 °C 30.2 in /  1022.6 hPa Calm     82 % 0 in /  0.0 mm
23:02 56.1 °F /  13.4 °C 50.7 °F /  10.4 °C 30.2 in /  1022.6 hPa Calm     82 % 0 in /  0.0 mm
23:07 56.1 °F /  13.4 °C 51.1 °F /  10.6 °C 30.2 in /  1022.6 hPa Calm     83 % 0 in /  0.0 mm
23:12 56.3 °F /  13.5 °C 51.3 °F /  10.7 °C 30.2 in /  1022.6 hPa Calm     83 % 0 in /  0.0 mm
23:17 56.1 °F /  13.4 °C 50.7 °F /  10.4 °C 30.2 in /  1022.6 hPa Calm     82 % 0 in /  0.0 mm
23:22 55.9 °F /  13.3 °C 50.5 °F /  10.3 °C 30.2 in /  1022.6 hPa Calm     82 % 0 in /  0.0 mm
23:27 55.6 °F /  13.1 °C 50.5 °F /  10.3 °C 30.2 in /  1022.6 hPa Calm     83 % 0 in /  0.0 mm
23:32 55.6 °F /  13.1 °C 50.5 °F /  10.3 °C 30.2 in /  1022.6 hPa Calm     83 % 0 in /  0.0 mm
23:37 55.6 °F /  13.1 °C 50.5 °F /  10.3 °C 30.2 in /  1022.6 hPa Calm     83 % 0 in /  0.0 mm
23:42 55.8 °F /  13.2 °C 50.7 °F /  10.4 °C 30.2 in /  1022.6 hPa Calm     83 % 0 in /  0.0 mm
23:47 55.6 °F /  13.1 °C 50.9 °F /  10.5 °C 30.2 in /  1022.6 hPa Calm     84 % 0 in /  0.0 mm
23:52 55.8 °F /  13.2 °C 51.1 °F /  10.6 °C 30.2 in /  1022.6 hPa Calm     84 % 0 in /  0.0 mm
23:57 55.8 °F /  13.2 °C 50.7 °F /  10.4 °C 30.2 in /  1022.6 hPa Calm     83 % 0 in /  0.0 mm
Meteo18
Compliments of Weather Underground - 4 mb

Script developed by  Jim McMurry - jmcmurry@mwt.net Adapted for the template by  Wim van der Kuil - Leuven-Template.eu

You find our weather info also at:

European Weather Network

Weather Underground

Equipment we use:

Weather-station
Davis Vue

Weather-program
Meteohub

Weather-server
Raspberry PI 2 B+

Provider
1 and 1

Davis Vue

Meteohub

Raspberry PI 2 B+

1 and 1